Time;durP1;ratioP1;P1;durP2;ratioP2;P2;SDS_P1;SDS_P2;PMS_P1;PMS_P2;Temp;Humidity;BMP_temperature;BMP_pressure;BME280_temperature;BME280_humidity;BME280_pressure;Samples;Min_cycle;Max_cycle;Signal;HPM_P1;HPM_P2
2023/10/30 00:00:47;;;;;;;1.65;1.20;;;14.50;76.20;;;;;;5029622;28;20026;-75
2023/10/30 00:03:16;;;;;;;1.63;1.10;;;14.50;76.20;;;;;;5027658;28;20110;-76
2023/10/30 00:05:42;;;;;;;1.33;0.90;;;14.50;76.20;;;;;;5031146;28;20494;-74
2023/10/30 00:08:08;;;;;;;1.23;1.00;;;14.50;76.30;;;;;;5017438;28;20029;-74
2023/10/30 00:10:37;;;;;;;1.35;1.10;;;14.50;76.30;;;;;;5038208;28;20036;-74
2023/10/30 00:13:02;;;;;;;2.05;1.10;;;14.50;76.30;;;;;;5033744;28;20040;-75
2023/10/30 00:15:28;;;;;;;1.27;0.98;;;14.40;76.20;;;;;;5042446;28;20033;-75
2023/10/30 00:17:54;;;;;;;1.10;0.88;;;14.40;76.30;;;;;;5038060;28;20045;-75
2023/10/30 00:20:20;;;;;;;1.33;1.00;;;14.40;76.30;;;;;;5018591;28;20529;-75
2023/10/30 00:22:45;;;;;;;1.67;0.93;;;14.40;76.30;;;;;;5038881;28;20466;-75
2023/10/30 00:25:11;;;;;;;0.90;0.90;;;14.40;76.30;;;;;;5038197;28;20048;-75
2023/10/30 00:27:37;;;;;;;2.05;1.30;;;14.40;76.30;;;;;;5019453;28;20033;-75
2023/10/30 00:30:03;;;;;;;1.60;1.13;;;14.40;76.30;;;;;;5039880;28;20104;-74
2023/10/30 00:32:30;;;;;;;1.38;1.02;;;14.40;76.30;;;;;;5012641;28;20124;-75
2023/10/30 00:34:56;;;;;;;1.50;1.00;;;14.30;76.30;;;;;;5012592;28;20452;-75
2023/10/30 00:37:23;;;;;;;2.58;1.30;;;14.30;76.30;;;;;;5030189;28;20129;-75
2023/10/30 00:39:49;;;;;;;1.90;1.00;;;14.30;76.40;;;;;;5014505;28;20060;-75
2023/10/30 00:42:14;;;;;;;3.45;1.30;;;14.30;76.40;;;;;;5027893;28;20470;-75
2023/10/30 00:44:40;;;;;;;1.80;1.10;;;14.30;76.40;;;;;;5013026;28;20042;-74
2023/10/30 00:47:06;;;;;;;1.50;1.00;;;14.30;76.50;;;;;;5028585;28;20579;-74
2023/10/30 00:49:32;;;;;;;2.80;1.38;;;14.30;76.40;;;;;;5012247;28;20034;-75
2023/10/30 00:51:58;;;;;;;1.75;1.10;;;14.20;76.40;;;;;;5011867;28;20107;-75
2023/10/30 00:54:23;;;;;;;2.75;1.48;;;14.30;76.50;;;;;;5029720;28;20179;-75
2023/10/30 00:56:49;;;;;;;1.38;1.08;;;14.20;76.50;;;;;;5029942;28;20037;-75
2023/10/30 00:59:15;;;;;;;1.70;1.08;;;14.20;76.40;;;;;;5014550;28;20078;-75
2023/10/30 01:01:41;;;;;;;1.77;1.05;;;14.20;76.50;;;;;;4994674;28;20026;-75
2023/10/30 01:04:07;;;;;;;1.17;0.90;;;14.20;76.50;;;;;;5013264;28;20467;-75
2023/10/30 01:06:33;;;;;;;2.95;1.17;;;14.20;76.50;;;;;;5010999;28;20033;-76
2023/10/30 01:08:59;;;;;;;1.38;1.10;;;14.20;76.60;;;;;;5012945;28;20040;-74
2023/10/30 01:11:25;;;;;;;1.73;1.00;;;14.20;76.50;;;;;;5032815;28;20030;-75
2023/10/30 01:13:51;;;;;;;1.42;1.10;;;14.20;76.50;;;;;;5030714;28;20512;-75
2023/10/30 01:16:16;;;;;;;1.88;1.17;;;14.20;76.60;;;;;;5010656;28;20049;-76
2023/10/30 01:18:42;;;;;;;2.05;1.27;;;14.20;76.60;;;;;;5027880;28;20041;-75
2023/10/30 01:21:09;;;;;;;2.40;1.10;;;14.20;76.60;;;;;;5029177;28;20052;-75
2023/10/30 01:23:35;;;;;;;1.30;1.00;;;14.20;76.60;;;;;;4981955;28;20068;-75
2023/10/30 01:26:01;;;;;;;1.95;1.30;;;14.20;76.60;;;;;;4992955;28;20055;-76
2023/10/30 01:28:26;;;;;;;2.17;1.15;;;14.20;76.60;;;;;;5018845;28;20030;-76
2023/10/30 01:30:53;;;;;;;2.42;1.35;;;14.20;76.60;;;;;;5011477;28;20026;-75
2023/10/30 01:33:19;;;;;;;1.27;1.00;;;14.10;76.50;;;;;;5030061;28;20068;-75
2023/10/30 01:35:45;;;;;;;1.85;1.30;;;14.10;76.60;;;;;;5010774;28;20042;-75
2023/10/30 01:38:11;;;;;;;1.65;1.02;;;14.10;76.60;;;;;;5011278;28;20040;-76
2023/10/30 01:40:36;;;;;;;2.28;1.20;;;14.10;76.60;;;;;;5010735;28;20083;-75
2023/10/30 01:43:09;;;;;;;2.22;1.17;;;14.10;76.70;;;;;;5027108;28;20063;-76
2023/10/30 01:45:34;;;;;;;1.17;1.05;;;14.10;76.70;;;;;;5042167;28;20483;-76
2023/10/30 01:48:01;;;;;;;2.38;1.13;;;14.10;76.60;;;;;;5024104;28;20079;-76
2023/10/30 01:50:28;;;;;;;2.17;1.20;;;14.10;76.70;;;;;;5007672;28;20120;-75
2023/10/30 01:52:53;;;;;;;2.85;1.38;;;14.10;76.70;;;;;;4994804;28;20124;-75
2023/10/30 01:55:20;;;;;;;1.15;0.90;;;14.10;76.70;;;;;;5027272;28;21064;-76
2023/10/30 01:57:46;;;;;;;2.03;1.25;;;14.00;76.70;;;;;;5010269;28;20029;-75
2023/10/30 02:00:13;;;;;;;2.05;1.10;;;14.10;76.70;;;;;;5027553;28;20516;-75
2023/10/30 02:02:40;;;;;;;2.00;1.17;;;14.00;76.70;;;;;;5025839;28;20082;-75
2023/10/30 02:05:08;;;;;;;2.13;1.27;;;14.10;76.70;;;;;;5000483;28;20072;-75
2023/10/30 02:07:35;;;;;;;2.22;1.20;;;14.10;76.70;;;;;;5038659;28;20031;-75
2023/10/30 02:10:03;;;;;;;2.20;1.20;;;14.10;76.70;;;;;;5016259;28;20026;-74
2023/10/30 02:12:32;;;;;;;1.48;1.10;;;14.10;76.70;;;;;;5022167;28;20391;-75
2023/10/30 02:14:58;;;;;;;1.70;1.00;;;14.00;76.70;;;;;;5022635;28;20034;-75
2023/10/30 02:17:24;;;;;;;1.73;1.02;;;14.00;76.70;;;;;;5038556;28;20033;-75
2023/10/30 02:19:51;;;;;;;2.10;1.00;;;14.00;76.70;;;;;;5016699;28;20411;-75
2023/10/30 02:22:17;;;;;;;1.90;1.20;;;14.00;76.70;;;;;;5024906;28;20025;-75
2023/10/30 02:24:43;;;;;;;2.10;1.23;;;14.00;76.70;;;;;;5029905;28;20037;-75
2023/10/30 02:27:09;;;;;;;1.48;1.05;;;14.00;76.70;;;;;;5041149;28;20021;-75
2023/10/30 02:29:35;;;;;;;2.65;1.00;;;14.00;76.80;;;;;;5009643;28;20393;-75
2023/10/30 02:32:01;;;;;;;1.25;1.05;;;14.00;76.80;;;;;;5010559;28;20060;-75
2023/10/30 02:34:26;;;;;;;2.92;1.23;;;14.00;76.80;;;;;;4993975;28;20367;-75
2023/10/30 02:36:54;;;;;;;1.35;1.20;;;14.00;76.80;;;;;;5024167;28;20063;-75
2023/10/30 02:39:20;;;;;;;2.33;1.25;;;14.00;76.80;;;;;;5041439;28;20060;-74
2023/10/30 02:41:46;;;;;;;1.88;1.23;;;14.00;76.80;;;;;;5012141;28;20034;-76
2023/10/30 02:44:12;;;;;;;1.95;0.95;;;14.00;76.80;;;;;;5027271;28;20037;-75
2023/10/30 02:46:37;;;;;;;2.17;1.17;;;14.00;76.80;;;;;;5028052;28;20022;-75
2023/10/30 02:49:03;;;;;;;2.47;1.13;;;14.00;76.80;;;;;;5011002;28;20033;-75
2023/10/30 02:51:29;;;;;;;1.38;0.90;;;14.00;77.50;;;;;;5028718;28;20041;-75
2023/10/30 02:53:55;;;;;;;3.25;1.20;;;14.00;76.80;;;;;;4993276;28;20111;-77
2023/10/30 02:56:20;;;;;;;1.45;1.00;;;14.00;76.80;;;;;;5024268;28;20478;-75
2023/10/30 02:58:46;;;;;;;1.27;0.93;;;14.00;76.80;;;;;;5026266;28;20029;-75
2023/10/30 03:01:12;;;;;;;2.58;1.40;;;14.00;76.80;;;;;;5009153;28;20383;-75
2023/10/30 03:03:39;;;;;;;1.10;0.90;;;14.00;76.80;;;;;;5010302;28;20041;-74
2023/10/30 03:06:05;;;;;;;1.38;1.10;;;14.00;76.80;;;;;;5002491;28;20041;-75
2023/10/30 03:08:31;;;;;;;1.10;1.00;;;14.00;76.90;;;;;;5028213;28;20030;-75
2023/10/30 03:10:56;;;;;;;1.10;1.00;;;14.00;76.90;;;;;;5028889;28;20544;-75
2023/10/30 03:13:23;;;;;;;1.13;0.95;;;14.00;76.90;;;;;;4992521;28;20063;-76
2023/10/30 03:15:49;;;;;;;1.30;1.20;;;14.00;77.00;;;;;;5010126;28;20046;-75
2023/10/30 03:18:14;;;;;;;1.75;0.90;;;14.00;76.90;;;;;;5008288;28;20076;-75
2023/10/30 03:20:40;;;;;;;2.13;1.10;;;14.00;76.90;;;;;;5007403;28;20030;-75
2023/10/30 03:23:06;;;;;;;1.35;0.90;;;14.00;77.00;;;;;;5026952;28;20029;-75
2023/10/30 03:25:32;;;;;;;1.23;1.02;;;14.00;77.00;;;;;;5027298;28;20471;-75
2023/10/30 03:27:57;;;;;;;1.45;1.08;;;14.00;77.00;;;;;;5010328;28;20037;-75
2023/10/30 03:30:23;;;;;;;1.95;1.10;;;14.00;77.00;;;;;;5012800;28;20029;-75
2023/10/30 03:32:49;;;;;;;1.98;1.17;;;13.90;76.90;;;;;;5010211;28;21143;-75
2023/10/30 03:35:15;;;;;;;2.22;1.20;;;14.00;77.00;;;;;;5029543;28;20133;-76
2023/10/30 03:37:40;;;;;;;2.35;1.15;;;14.00;77.60;;;;;;5025152;28;20116;-75
2023/10/30 03:40:09;;;;;;;2.20;1.10;;;14.00;77.00;;;;;;5027947;28;20112;-75
2023/10/30 03:42:35;;;;;;;1.42;1.13;;;14.00;76.90;;;;;;5010543;28;20021;-75
2023/10/30 03:45:01;;;;;;;1.73;1.13;;;14.00;76.90;;;;;;5029778;28;20034;-76
2023/10/30 03:47:27;;;;;;;2.15;1.10;;;14.00;76.90;;;;;;5010154;28;20179;-75
2023/10/30 03:49:53;;;;;;;2.03;1.00;;;14.00;77.00;;;;;;5010883;28;20525;-75
2023/10/30 03:52:19;;;;;;;2.30;1.10;;;13.90;76.90;;;;;;5026588;28;20068;-75
2023/10/30 03:54:45;;;;;;;1.17;1.08;;;13.90;76.90;;;;;;5011059;28;20045;-74
2023/10/30 03:57:11;;;;;;;2.35;1.35;;;13.90;76.90;;;;;;5012737;28;20049;-75
2023/10/30 03:59:36;;;;;;;1.88;1.00;;;13.90;76.90;;;;;;5029147;28;20026;-75
2023/10/30 04:02:02;;;;;;;1.88;1.10;;;13.90;76.90;;;;;;4996918;28;20485;-76
2023/10/30 04:04:28;;;;;;;1.65;1.10;;;13.90;76.90;;;;;;5035913;28;20032;-75
2023/10/30 04:06:54;;;;;;;1.33;0.90;;;13.90;76.90;;;;;;5013356;28;20069;-75
2023/10/30 04:09:19;;;;;;;1.30;1.08;;;13.90;77.60;;;;;;5029783;28;20404;-75
2023/10/30 04:11:46;;;;;;;1.40;1.00;;;13.90;76.90;;;;;;5031512;28;20041;-76
2023/10/30 04:14:12;;;;;;;1.27;1.10;;;13.90;76.90;;;;;;5028617;28;20489;-75
2023/10/30 04:16:38;;;;;;;1.60;1.00;;;13.90;76.90;;;;;;5031755;28;20033;-75
2023/10/30 04:19:04;;;;;;;1.25;1.00;;;13.90;76.90;;;;;;5028541;28;20410;-75
2023/10/30 04:21:30;;;;;;;2.17;1.05;;;13.90;76.80;;;;;;4982784;28;20317;-77
2023/10/30 04:23:57;;;;;;;1.75;1.10;;;13.90;76.90;;;;;;5013565;28;20480;-75
2023/10/30 04:26:23;;;;;;;1.40;1.00;;;13.90;76.80;;;;;;5029097;28;20044;-76
2023/10/30 04:28:49;;;;;;;1.33;1.15;;;13.90;76.80;;;;;;5031452;28;20463;-76
2023/10/30 04:31:15;;;;;;;1.73;1.00;;;13.90;76.80;;;;;;5013470;28;20489;-75
2023/10/30 04:33:41;;;;;;;1.65;1.13;;;13.90;76.80;;;;;;5029959;28;20473;-75
2023/10/30 04:36:07;;;;;;;1.98;1.13;;;13.90;76.90;;;;;;5029458;28;20029;-76
2023/10/30 04:38:33;;;;;;;1.67;1.05;;;13.80;76.90;;;;;;4993760;28;20029;-75
2023/10/30 04:41:05;;;;;;;1.33;1.05;;;13.80;76.80;;;;;;5030019;28;20025;-75
2023/10/30 04:43:35;;;;;;;0.90;0.90;;;13.90;76.90;;;;;;5010335;28;20474;-75
2023/10/30 04:46:00;;;;;;;2.05;1.15;;;13.80;76.90;;;;;;5008851;28;20156;-75
2023/10/30 04:48:29;;;;;;;1.90;1.00;;;13.80;76.90;;;;;;5013942;28;20487;-75
2023/10/30 04:50:55;;;;;;;1.75;1.13;;;13.80;77.00;;;;;;5031846;28;20037;-74
2023/10/30 04:53:20;;;;;;;1.55;1.00;;;13.80;77.00;;;;;;5028582;28;20544;-76
2023/10/30 04:55:49;;;;;;;1.13;1.02;;;13.80;77.00;;;;;;4995341;28;20542;-75
2023/10/30 04:58:15;;;;;;;1.60;1.17;;;13.80;77.00;;;;;;5031340;28;20028;-75
2023/10/30 05:00:42;;;;;;;1.00;1.00;;;13.80;77.60;;;;;;5028723;28;20029;-76
2023/10/30 05:03:09;;;;;;;1.95;1.10;;;13.80;76.90;;;;;;5029380;28;20061;-75
2023/10/30 05:05:36;;;;;;;1.30;1.00;;;13.70;76.90;;;;;;5011656;28;20029;-75
2023/10/30 05:08:02;;;;;;;2.45;1.30;;;13.70;77.60;;;;;;5043384;28;20048;-74
2023/10/30 05:10:27;;;;;;;1.40;1.20;;;13.70;77.00;;;;;;5015071;28;20029;-75
2023/10/30 05:12:53;;;;;;;1.05;0.88;;;13.70;77.30;;;;;;5011466;28;20596;-76
2023/10/30 05:15:21;;;;;;;1.40;1.00;;;13.70;76.90;;;;;;5028802;28;20039;-75
2023/10/30 05:17:47;;;;;;;1.42;1.00;;;13.70;76.90;;;;;;5009064;28;20061;-75
2023/10/30 05:20:12;;;;;;;1.25;0.90;;;13.70;77.00;;;;;;5012855;28;20077;-75
2023/10/30 05:22:47;;;;;;;0.95;0.90;;;13.70;77.00;;;;;;5023678;28;20043;-75
2023/10/30 05:25:13;;;;;;;;;;;13.70;77.00;;;;;;5010991;28;20026;-75
2023/10/30 05:27:39;;;;;;;1.65;1.10;;;13.60;76.90;;;;;;5028769;28;20051;-76
2023/10/30 05:30:05;;;;;;;1.38;1.25;;;13.60;76.90;;;;;;5004199;28;20383;-75
2023/10/30 05:32:31;;;;;;;1.98;1.05;;;13.60;77.00;;;;;;5028413;28;20482;-75
2023/10/30 05:34:56;;;;;;;2.15;1.20;;;13.60;77.00;;;;;;5029139;28;20061;-75
2023/10/30 05:37:22;;;;;;;1.02;0.93;;;13.50;77.00;;;;;;5025691;28;20165;-75
2023/10/30 05:39:52;;;;;;;2.45;1.08;;;13.50;77.00;;;;;;5009960;28;20029;-75
2023/10/30 05:42:17;;;;;;;1.85;1.00;;;13.50;77.00;;;;;;5026328;28;20025;-75
2023/10/30 05:44:45;;;;;;;2.50;1.25;;;13.50;77.00;;;;;;5010734;28;20045;-74
2023/10/30 05:47:11;;;;;;;1.65;1.00;;;13.50;77.00;;;;;;5012126;28;20065;-75
2023/10/30 05:49:37;;;;;;;1.48;1.00;;;13.50;77.00;;;;;;5016362;28;20026;-74
2023/10/30 05:52:03;;;;;;;2.03;1.38;;;13.50;77.10;;;;;;5023249;28;20033;-75
2023/10/30 05:54:28;;;;;;;1.40;0.98;;;13.50;77.10;;;;;;5030363;28;20036;-75
2023/10/30 05:56:54;;;;;;;1.17;0.98;;;13.50;77.10;;;;;;5030440;28;20038;-75
2023/10/30 05:59:20;;;;;;;1.45;1.08;;;13.50;77.10;;;;;;5019731;28;20489;-75
2023/10/30 06:01:47;;;;;;;1.40;1.30;;;13.50;77.20;;;;;;5033358;28;20496;-75
2023/10/30 06:04:13;;;;;;;1.88;1.00;;;13.40;77.10;;;;;;5026575;28;20028;-76
2023/10/30 06:06:39;;;;;;;1.45;1.20;;;13.40;77.10;;;;;;5004773;28;20470;-75
2023/10/30 06:09:06;;;;;;;1.17;1.02;;;13.40;77.10;;;;;;4994366;28;20034;-76
2023/10/30 06:11:32;;;;;;;1.95;1.10;;;13.40;77.20;;;;;;5026151;28;20421;-75
2023/10/30 06:13:58;;;;;;;1.42;1.30;;;13.40;77.20;;;;;;5026160;28;20064;-76
2023/10/30 06:16:23;;;;;;;1.75;1.00;;;13.40;77.10;;;;;;4995313;28;20403;-76
2023/10/30 06:18:49;;;;;;;1.10;1.00;;;13.40;77.10;;;;;;5006367;28;20088;-75
2023/10/30 06:21:18;;;;;;;1.52;1.00;;;13.40;77.10;;;;;;5025186;28;20087;-75
2023/10/30 06:23:45;;;;;;;1.00;0.93;;;13.40;77.20;;;;;;5007574;28;20541;-74
2023/10/30 06:26:12;;;;;;;1.50;0.98;;;13.40;77.30;;;;;;5010049;28;20548;-82
2023/10/30 06:28:39;;;;;;;1.58;1.10;;;13.30;77.20;;;;;;5023652;28;20030;-77
2023/10/30 06:31:13;;;;;;;2.72;1.30;;;13.40;77.30;;;;;;4999381;28;20433;-75
2023/10/30 06:33:38;;;;;;;1.13;1.00;;;13.30;77.30;;;;;;5047445;28;20064;-75
2023/10/30 06:36:05;;;;;;;1.00;1.00;;;13.30;77.20;;;;;;5026162;28;21672;-75
2023/10/30 06:38:30;;;;;;;1.25;1.08;;;13.30;77.20;;;;;;5013880;28;20045;-75
2023/10/30 06:40:56;;;;;;;1.00;1.00;;;13.30;77.30;;;;;;5024130;28;20508;-75
2023/10/30 06:43:22;;;;;;;1.40;1.00;;;13.30;77.20;;;;;;5034186;28;20493;-75
2023/10/30 06:45:48;;;;;;;1.27;1.00;;;13.30;77.20;;;;;;5045716;28;20600;-75
2023/10/30 06:48:13;;;;;;;1.60;1.05;;;13.20;77.20;;;;;;5040431;28;20039;-75
2023/10/30 06:50:39;;;;;;;1.08;0.98;;;13.30;77.30;;;;;;5033846;28;20390;-75
2023/10/30 06:53:05;;;;;;;1.95;1.10;;;13.20;77.20;;;;;;5001172;28;20083;-74
2023/10/30 06:55:32;;;;;;;1.05;0.90;;;13.20;77.30;;;;;;5020103;28;20037;-75
2023/10/30 06:57:57;;;;;;;1.38;0.98;;;13.20;77.30;;;;;;5035622;28;20036;-75
2023/10/30 07:00:23;;;;;;;1.00;1.00;;;13.20;77.30;;;;;;5020362;28;20462;-75
2023/10/30 07:02:49;;;;;;;1.35;1.00;;;13.20;77.30;;;;;;5029642;28;20033;-75
2023/10/30 07:05:15;;;;;;;1.50;1.00;;;13.20;77.30;;;;;;5014015;28;20030;-75
2023/10/30 07:07:41;;;;;;;1.05;0.90;;;13.20;77.30;;;;;;5032606;28;20037;-75
2023/10/30 07:10:07;;;;;;;1.00;0.90;;;13.20;77.30;;;;;;5029274;28;20036;-75
2023/10/30 07:12:33;;;;;;;1.23;1.05;;;13.20;77.30;;;;;;4999084;28;20022;-74
2023/10/30 07:14:59;;;;;;;1.70;1.27;;;13.10;77.30;;;;;;5018854;28;20030;-74
2023/10/30 07:17:24;;;;;;;0.82;0.82;;;13.20;77.30;;;;;;5038546;28;20053;-75
2023/10/30 07:19:50;;;;;;;1.55;1.00;;;13.20;78.00;;;;;;5042387;28;20100;-75
2023/10/30 07:22:16;;;;;;;0.93;0.90;;;13.10;77.30;;;;;;5015932;28;20026;-75
2023/10/30 07:24:42;;;;;;;1.50;1.00;;;13.10;77.30;;;;;;5021754;28;20037;-75
2023/10/30 07:27:07;;;;;;;1.38;1.00;;;13.20;77.40;;;;;;4996540;28;20561;-75
2023/10/30 07:29:33;;;;;;;1.23;1.13;;;13.20;77.40;;;;;;5034833;28;20368;-76
2023/10/30 07:31:59;;;;;;;1.65;1.02;;;13.10;77.40;;;;;;5042342;28;20021;-75
2023/10/30 07:34:24;;;;;;;2.45;1.35;;;13.10;77.40;;;;;;4996358;28;20033;-75
2023/10/30 07:36:50;;;;;;;1.25;1.10;;;13.10;77.40;;;;;;5041624;28;20502;-75
2023/10/30 07:39:16;;;;;;;1.33;0.98;;;13.10;78.00;;;;;;5036635;28;20029;-74
2023/10/30 07:41:42;;;;;;;1.55;1.05;;;13.10;77.40;;;;;;5028694;28;20053;-74
2023/10/30 07:44:09;;;;;;;1.10;1.00;;;13.10;77.50;;;;;;5027321;28;20474;-74
2023/10/30 07:46:35;;;;;;;1.67;1.20;;;13.10;77.40;;;;;;5035624;28;20086;-75
2023/10/30 07:49:06;;;;;;;1.00;0.90;;;13.10;77.50;;;;;;5046504;28;20065;-75
2023/10/30 07:51:32;;;;;;;1.40;0.93;;;13.10;77.50;;;;;;5036966;28;20032;-74
2023/10/30 07:54:01;;;;;;;1.95;1.10;;;13.10;77.50;;;;;;5044978;28;20505;-76
2023/10/30 07:56:27;;;;;;;2.67;1.10;;;13.10;77.50;;;;;;5042809;28;20029;-75
2023/10/30 07:58:53;;;;;;;1.25;1.10;;;13.10;77.50;;;;;;5043093;28;20033;-74
2023/10/30 08:01:20;;;;;;;1.35;1.10;;;13.10;77.50;;;;;;5035768;28;20032;-73
2023/10/30 08:03:46;;;;;;;1.13;1.02;;;13.10;77.50;;;;;;5036423;28;20049;-73
2023/10/30 08:06:15;;;;;;;1.20;0.98;;;13.10;77.50;;;;;;5017838;28;20022;-73
2023/10/30 08:08:41;;;;;;;1.77;1.20;;;13.10;77.50;;;;;;5020120;28;20084;-75
2023/10/30 08:11:07;;;;;;;0.98;0.77;;;13.10;77.50;;;;;;5022315;28;20036;-76
2023/10/30 08:13:33;;;;;;;0.90;0.90;;;13.10;77.50;;;;;;5029174;28;20033;-76
2023/10/30 08:15:59;;;;;;;0.98;0.82;;;13.10;77.50;;;;;;5031192;28;20029;-76
2023/10/30 08:18:25;;;;;;;0.98;0.98;;;13.10;77.50;;;;;;5040339;28;20029;-75
2023/10/30 08:20:51;;;;;;;1.75;1.00;;;13.10;77.60;;;;;;5030206;28;20474;-75
2023/10/30 08:23:17;;;;;;;1.67;1.20;;;13.20;77.60;;;;;;5027835;28;20037;-73
2023/10/30 08:25:43;;;;;;;2.13;1.20;;;13.20;77.60;;;;;;5040975;28;20022;-75
2023/10/30 08:28:09;;;;;;;0.85;0.85;;;13.10;77.60;;;;;;5029971;28;20144;-75
2023/10/30 08:30:34;;;;;;;1.30;1.15;;;13.20;77.60;;;;;;5040179;28;20437;-75
2023/10/30 08:33:03;;;;;;;0.90;0.90;;;13.20;77.60;;;;;;5033562;28;20025;-77
2023/10/30 08:35:30;;;;;;;1.63;1.02;;;13.20;77.60;;;;;;5025407;28;20072;-77
2023/10/30 08:37:57;;;;;;;1.23;1.00;;;13.20;77.60;;;;;;5028937;28;20457;-76
2023/10/30 08:40:23;;;;;;;1.30;1.10;;;13.20;77.70;;;;;;5022882;28;20438;-74
2023/10/30 08:42:49;;;;;;;2.20;1.10;;;13.20;77.70;;;;;;5024504;28;20036;-74
2023/10/30 08:45:15;;;;;;;1.30;1.17;;;13.20;77.70;;;;;;5024635;28;20678;-74
2023/10/30 08:47:41;;;;;;;1.10;1.05;;;13.20;77.70;;;;;;5040190;28;20029;-74
2023/10/30 08:50:08;;;;;;;1.65;1.30;;;13.30;77.80;;;;;;5033319;28;20044;-75
2023/10/30 08:52:34;;;;;;;1.37;1.10;;;13.30;77.80;;;;;;5036684;28;20450;-74
2023/10/30 08:55:00;;;;;;;3.13;1.30;;;13.30;77.80;;;;;;5040171;28;20152;-74
2023/10/30 08:57:26;;;;;;;2.42;1.10;;;13.40;77.80;;;;;;5043034;28;20382;-74
2023/10/30 08:59:52;;;;;;;1.95;1.20;;;13.40;77.80;;;;;;5025662;28;20030;-74
2023/10/30 09:02:17;;;;;;;3.45;1.58;;;13.40;77.80;;;;;;5011602;28;20113;-74
2023/10/30 09:04:43;;;;;;;1.25;1.10;;;13.40;77.80;;;;;;5042665;28;20076;-74
2023/10/30 09:07:09;;;;;;;2.47;1.20;;;13.40;77.80;;;;;;5034391;28;20029;-74
2023/10/30 09:09:35;;;;;;;2.35;1.20;;;13.50;77.80;;;;;;5041983;28;20029;-76
2023/10/30 09:12:00;;;;;;;2.13;1.20;;;13.50;77.80;;;;;;5051479;28;20032;-76
2023/10/30 09:14:26;;;;;;;2.38;1.23;;;13.50;77.80;;;;;;5016337;28;20394;-76
2023/10/30 09:16:52;;;;;;;2.97;1.63;;;13.50;77.80;;;;;;5032721;28;20029;-76
2023/10/30 09:19:18;;;;;;;3.08;1.23;;;13.60;77.80;;;;;;5004221;28;20038;-74
2023/10/30 09:21:44;;;;;;;1.80;1.17;;;13.60;78.40;;;;;;5032554;28;20536;-74
2023/10/30 09:24:10;;;;;;;1.48;1.20;;;13.60;77.80;;;;;;5009268;28;20059;-74
2023/10/30 09:26:35;;;;;;;1.90;1.25;;;13.70;77.80;;;;;;5042830;28;20128;-74
2023/10/30 09:29:02;;;;;;;1.13;1.00;;;13.70;77.80;;;;;;5034543;28;20030;-74
2023/10/30 09:31:30;;;;;;;1.70;1.25;;;13.70;77.80;;;;;;5042222;28;20036;-73
2023/10/30 09:34:00;;;;;;;1.52;1.00;;;13.70;77.70;;;;;;5047216;28;20032;-74
2023/10/30 09:36:27;;;;;;;1.58;1.08;;;13.80;77.80;;;;;;5032574;28;20045;-74
2023/10/30 09:38:53;;;;;;;1.08;1.00;;;13.80;77.70;;;;;;5032555;28;20116;-74
2023/10/30 09:41:20;;;;;;;1.85;1.10;;;13.80;77.70;;;;;;5034723;28;20511;-73
2023/10/30 09:43:50;;;;;;;4.40;1.20;;;13.80;77.60;;;;;;5042127;28;20425;-74
2023/10/30 09:46:16;;;;;;;1.75;1.02;;;13.90;77.70;;;;;;5043003;28;20072;-73
2023/10/30 09:48:48;;;;;;;2.47;1.30;;;13.90;77.60;;;;;;5041665;28;20048;-74
2023/10/30 09:51:14;;;;;;;1.38;1.00;;;13.90;77.70;;;;;;5035417;28;20473;-74
2023/10/30 09:53:42;;;;;;;2.53;1.20;;;14.00;77.70;;;;;;5039933;28;20348;-74
2023/10/30 09:56:08;;;;;;;1.27;1.08;;;14.00;77.60;;;;;;5031631;28;20033;-75
2023/10/30 09:58:38;;;;;;;1.75;1.10;;;14.00;77.50;;;;;;5043731;28;20489;-74
2023/10/30 10:01:05;;;;;;;1.95;1.00;;;14.10;77.60;;;;;;5043052;28;20074;-74
2023/10/30 10:03:30;;;;;;;2.35;1.10;;;14.10;77.50;;;;;;5007678;28;20044;-73
2023/10/30 10:05:57;;;;;;;2.17;1.20;;;14.10;77.50;;;;;;5037495;28;20029;-73
2023/10/30 10:08:24;;;;;;;2.22;1.10;;;14.10;77.50;;;;;;5031747;28;20499;-74
2023/10/30 10:11:01;;;;;;;1.13;1.00;;;14.20;77.60;;;;;;5018343;28;20033;-74
2023/10/30 10:13:29;;;;;;;1.92;1.20;;;14.20;77.60;;;;;;5034823;28;20091;-74
2023/10/30 10:15:55;;;;;;;1.50;0.95;;;14.20;77.50;;;;;;5036994;28;20083;-74
2023/10/30 10:18:28;;;;;;;1.23;1.10;;;14.20;77.50;;;;;;5032811;28;20033;-73
2023/10/30 10:20:59;;;;;;;2.72;1.20;;;14.30;77.60;;;;;;5024151;28;20040;-74
2023/10/30 10:23:33;;;;;;;2.63;1.52;;;14.30;77.60;;;;;;5035322;28;20108;-73
2023/10/30 10:26:03;;;;;;;1.38;1.02;;;14.40;77.50;;;;;;5040736;28;20438;-73
2023/10/30 10:28:29;;;;;;;1.55;1.15;;;14.30;77.50;;;;;;5026149;28;20412;-74
2023/10/30 10:30:55;;;;;;;1.20;1.10;;;14.40;77.50;;;;;;5023040;28;20021;-74
2023/10/30 10:33:22;;;;;;;1.23;1.00;;;14.40;77.50;;;;;;5047211;28;20052;-74
2023/10/30 10:35:55;;;;;;;1.13;0.95;;;14.50;77.60;;;;;;5037527;28;20498;-74
2023/10/30 10:38:22;;;;;;;1.38;0.95;;;14.50;77.60;;;;;;5036074;28;20115;-73
2023/10/30 10:40:49;;;;;;;2.30;1.17;;;14.50;77.50;;;;;;5021618;28;20029;-74
2023/10/30 10:43:27;;;;;;;1.38;1.10;;;14.50;77.50;;;;;;5051478;28;20048;-74
2023/10/30 10:45:54;;;;;;;1.30;1.00;;;14.60;77.60;;;;;;5023111;28;20124;-73
2023/10/30 10:48:23;;;;;;;1.08;0.98;;;14.60;77.50;;;;;;5038707;28;20041;-74
2023/10/30 10:50:49;;;;;;;1.20;1.10;;;14.60;77.40;;;;;;5030909;28;20382;-73
2023/10/30 10:53:18;;;;;;;1.30;1.13;;;14.60;77.40;;;;;;5037029;28;20095;-74
2023/10/30 10:55:49;;;;;;;1.33;1.20;;;14.70;77.50;;;;;;5037446;28;20033;-73
2023/10/30 10:58:30;;;;;;;2.00;1.33;;;14.70;78.10;;;;;;5041508;28;20021;-74
2023/10/30 11:00:59;;;;;;;1.15;1.05;;;14.80;77.50;;;;;;5039191;28;20034;-74
2023/10/30 11:03:25;;;;;;;1.75;1.20;;;14.80;77.50;;;;;;5035919;28;20030;-74
2023/10/30 11:05:52;;;;;;;2.70;1.30;;;14.80;77.50;;;;;;5039089;28;20481;-73
2023/10/30 11:08:46;;;;;;;2.22;1.20;;;14.80;77.50;;;;;;5036379;28;20445;-73
2023/10/30 11:11:23;;;;;;;2.28;1.13;;;14.80;77.50;;;;;;5031428;28;20466;-74
2023/10/30 11:14:04;;;;;;;1.50;1.13;;;14.90;77.50;;;;;;5036909;28;20030;-73
2023/10/30 11:17:01;;;;;;;1.50;1.00;;;14.90;77.50;;;;;;5031254;28;20040;-74
2023/10/30 11:19:32;;;;;;;1.85;1.10;;;14.90;77.50;;;;;;5037440;28;20048;-73
2023/10/30 11:22:01;;;;;;;2.03;1.50;;;14.90;77.40;;;;;;5027405;28;20388;-73
2023/10/30 11:24:37;;;;;;;2.25;1.38;;;15.00;77.50;;;;;;5038256;28;20029;-73
2023/10/30 11:27:28;;;;;;;2.63;1.30;;;15.00;77.60;;;;;;5034316;28;20018;-74
2023/10/30 11:30:03;;;;;;;2.00;1.15;;;15.00;77.60;;;;;;5039441;28;20391;-73
2023/10/30 11:32:37;;;;;;;1.65;1.05;;;15.10;77.50;;;;;;5037852;28;20030;-74
2023/10/30 11:35:03;;;;;;;1.55;1.23;;;15.10;77.50;;;;;;5041024;28;20363;-73
2023/10/30 11:37:32;;;;;;;1.83;1.10;;;15.10;77.40;;;;;;5038626;28;20142;-73
2023/10/30 11:40:02;;;;;;;1.65;1.10;;;15.20;77.50;;;;;;5037430;28;20037;-73
2023/10/30 11:42:29;;;;;;;2.53;1.30;;;15.20;77.40;;;;;;5040428;28;20037;-74
2023/10/30 11:45:23;;;;;;;0.88;0.88;;;15.20;77.40;;;;;;5034186;28;20049;-74
2023/10/30 11:47:59;;;;;;;1.13;1.00;;;15.30;77.50;;;;;;5029378;28;20033;-74
2023/10/30 11:50:31;;;;;;;1.15;1.10;;;15.30;77.40;;;;;;5031090;28;20396;-74
2023/10/30 11:53:07;;;;;;;1.38;1.17;;;15.30;77.30;;;;;;5033205;28;20036;-75
2023/10/30 11:55:35;;;;;;;1.40;1.08;;;15.40;77.40;;;;;;5031422;28;20033;-75
2023/10/30 11:58:01;;;;;;;2.08;1.20;;;15.40;77.30;;;;;;5020206;28;20029;-74
2023/10/30 12:00:28;;;;;;;1.23;0.90;;;15.40;77.20;;;;;;5016220;28;20151;-75
2023/10/30 12:02:54;;;;;;;2.00;1.10;;;15.50;77.20;;;;;;5019420;28;20075;-74
2023/10/30 12:05:20;;;;;;;1.77;1.15;;;15.50;77.20;;;;;;5042909;28;20036;-76
2023/10/30 12:07:48;;;;;;;1.25;1.10;;;15.50;77.10;;;;;;5016619;28;20029;-75
2023/10/30 12:10:14;;;;;;;1.75;1.10;;;15.50;77.10;;;;;;5029096;28;20068;-74
2023/10/30 12:12:41;;;;;;;1.48;0.95;;;15.60;77.10;;;;;;5023465;28;20551;-75
2023/10/30 12:15:07;;;;;;;2.70;1.20;;;15.60;77.00;;;;;;5022230;28;20490;-74
2023/10/30 12:17:33;;;;;;;2.30;1.13;;;15.60;77.60;;;;;;5023739;28;20470;-75
2023/10/30 12:19:59;;;;;;;1.52;1.10;;;15.60;77.00;;;;;;5019664;28;20045;-75
2023/10/30 12:22:25;;;;;;;2.13;1.15;;;15.70;77.00;;;;;;5022829;28;20044;-75
2023/10/30 12:24:51;;;;;;;1.63;1.17;;;15.70;77.00;;;;;;5040285;28;20416;-75
2023/10/30 12:27:21;;;;;;;1.90;1.08;;;15.70;77.00;;;;;;5044150;28;20030;-74
2023/10/30 12:29:46;;;;;;;1.58;1.02;;;15.70;77.00;;;;;;5031746;28;20025;-75
2023/10/30 12:32:12;;;;;;;1.40;1.10;;;15.70;77.20;;;;;;5041323;28;20112;-75
2023/10/30 12:34:38;;;;;;;1.50;1.00;;;15.80;76.90;;;;;;5036847;28;20121;-75
2023/10/30 12:37:23;;;;;;;2.08;1.10;;;15.80;76.90;;;;;;5003211;28;20037;-74
2023/10/30 12:40:09;;;;;;;1.35;0.90;;;15.80;77.00;;;;;;5045103;28;20052;-75
2023/10/30 12:42:36;;;;;;;2.00;1.17;;;15.80;76.80;;;;;;5017186;28;20021;-75
2023/10/30 12:45:19;;;;;;;1.67;0.93;;;15.80;76.70;;;;;;5014341;28;20401;-75
2023/10/30 12:47:52;;;;;;;1.02;0.90;;;15.80;76.80;;;;;;5011289;28;20026;-74